Kampville Beach, Missouri
Current Conditions -  °F | °C
As of 8:54 PM on Saturday 25 Oct 2014 (Local Time) from KSET Reporting Station
Clear Clear  
Wind Chill: 15°   Ceiling: Unl
Heat Index: 15°   Visibility: 10mi
Dew Point: 11°   Wind: 0mph
Humidity: 78%   Direction: NA
Pressure: 30.01"   Gusts: NA
Location:  38.8615°N, 90.4548°W
Report Text: KSET 260154Z AUTO 00000KT 10SM CLR 15/11 A3001 RMK AO2 SLP159 T01500111
Loading
Personal Weather Stations






























Interactive Weather Map
Tropical Storm Tracking
New forecast layout! Learn more

10-Day Weather Forecast

Advertisements
Track Severe Weather on mobile